Time;durP1;ratioP1;P1;durP2;ratioP2;P2;SDS_P1;SDS_P2;PMS_P1;PMS_P2;Temp;Humidity;BMP_temperature;BMP_pressure;BME280_temperature;BME280_humidity;BME280_pressure;Samples;Min_cycle;Max_cycle;Signal;HPM_P1;HPM_P2
2021/06/10 00:00:42;;;;;;;12.25;2.85;;;;;;;;;;4971613;28;20023;-48
2021/06/10 00:03:09;;;;;;;6.35;2.55;;;;;;;;;;4971400;28;20069;-41
2021/06/10 00:05:38;;;;;;;21.48;2.75;;;;;;;;;;4957445;28;20066;-47
2021/06/10 00:08:07;;;;;;;8.02;2.50;;;;;;;;;;4970117;28;20109;-40
2021/06/10 00:10:35;;;;;;;10.90;3.50;;;;;;;;;;4970150;28;20038;-40
2021/06/10 00:13:02;;;;;;;6.88;2.75;;;;;;;;;;4970837;28;20037;-35
2021/06/10 00:15:30;;;;;;;11.02;3.30;;;;;;;;;;4950240;28;20027;-37
2021/06/10 00:17:57;;;;;;;11.65;3.40;;;;;;;;;;4951491;28;20034;-36
2021/06/10 00:20:27;;;;;;;10.75;2.85;;;;;;;;;;4958997;28;20018;-37
2021/06/10 00:22:55;;;;;;;13.20;3.40;;;;;;;;;;4962559;28;20038;-38
2021/06/10 00:25:23;;;;;;;8.23;3.40;;;;;;;;;;4970913;28;20043;-37
2021/06/10 00:27:50;;;;;;;11.25;3.20;;;;;;;;;;4968215;28;20027;-37
2021/06/10 00:30:18;;;;;;;7.43;2.63;;;;;;;;;;4970957;28;20359;-38
2021/06/10 00:32:46;;;;;;;13.25;2.85;;;;;;;;;;4970679;28;20019;-38
2021/06/10 00:35:14;;;;;;;9.68;3.08;;;;;;;;;;4971020;28;20587;-38
2021/06/10 00:37:41;;;;;;;11.13;3.90;;;;;;;;;;4962311;28;20027;-53
2021/06/10 00:40:09;;;;;;;11.52;4.35;;;;;;;;;;4964552;28;20387;-48
2021/06/10 00:42:37;;;;;;;10.60;5.13;;;;;;;;;;4968525;28;20118;-43
2021/06/10 00:45:09;;;;;;;13.38;5.20;;;;;;;;;;4971061;28;20142;-55
2021/06/10 00:47:36;;;;;;;11.27;6.10;;;;;;;;;;4971017;28;20034;-53
2021/06/10 00:50:03;;;;;;;14.38;6.82;;;;;;;;;;4958147;28;20062;-52
2021/06/10 00:52:30;;;;;;;15.02;6.65;;;;;;;;;;4951627;28;20440;-50
2021/06/10 00:54:57;;;;;;;19.35;7.47;;;;;;;;;;4962934;28;20023;-50
2021/06/10 00:57:25;;;;;;;18.10;6.95;;;;;;;;;;4953593;28;20078;-51
2021/06/10 00:59:52;;;;;;;21.70;7.30;;;;;;;;;;4951557;28;20008;-49
2021/06/10 01:02:19;;;;;;;17.33;7.22;;;;;;;;;;4951408;28;20027;-44
2021/06/10 01:04:46;;;;;;;22.17;7.68;;;;;;;;;;4957868;28;20065;-52
2021/06/10 01:07:19;;;;;;;17.73;7.40;;;;;;;;;;4966908;28;20022;-51
2021/06/10 01:09:49;;;;;;;14.70;6.55;;;;;;;;;;4961760;28;20035;-39
2021/06/10 01:12:22;;;;;;;13.05;6.35;;;;;;;;;;4953524;29;20031;-43
2021/06/10 01:14:58;;;;;;;15.85;5.53;;;;;;;;;;4966436;28;20024;-46
2021/06/10 01:17:26;;;;;;;14.05;5.28;;;;;;;;;;4962610;28;20042;-38
2021/06/10 01:20:19;;;;;;;17.20;5.70;;;;;;;;;;4974099;28;20034;-47
2021/06/10 01:22:52;;;;;;;16.17;5.72;;;;;;;;;;4971020;28;20046;-48
2021/06/10 01:25:18;;;;;;;;;;;;;;;;;;4974408;28;20055;-43
2021/06/10 01:27:51;;;;;;;13.25;5.25;;;;;;;;;;4956113;28;19917;-43
2021/06/10 01:30:23;;;;;;;13.95;5.50;;;;;;;;;;4973822;28;20019;-42
2021/06/10 01:32:52;;;;;;;11.65;5.75;;;;;;;;;;4963022;28;20368;-40
2021/06/10 01:35:21;;;;;;;28.00;6.30;;;;;;;;;;4953021;29;20086;-38
2021/06/10 01:37:49;;;;;;;11.93;4.88;;;;;;;;;;4953792;29;20033;-40
2021/06/10 01:40:16;;;;;;;15.75;4.68;;;;;;;;;;4956144;28;20023;-38
2021/06/10 01:42:43;;;;;;;17.05;5.00;;;;;;;;;;4953997;28;20428;-40
2021/06/10 01:45:11;;;;;;;10.38;4.60;;;;;;;;;;4958546;28;20035;-38
2021/06/10 01:47:43;;;;;;;12.30;4.90;;;;;;;;;;4966017;28;20117;-41
2021/06/10 01:50:10;;;;;;;11.33;5.27;;;;;;;;;;4964832;28;20109;-38
2021/06/10 01:52:39;;;;;;;12.15;4.72;;;;;;;;;;4954947;28;20026;-39
2021/06/10 01:55:08;;;;;;;12.10;5.07;;;;;;;;;;4952346;29;20059;-40
2021/06/10 01:57:35;;;;;;;10.05;5.13;;;;;;;;;;4953783;29;20487;-45
2021/06/10 02:00:03;;;;;;;10.73;5.20;;;;;;;;;;4954177;29;20020;-40
2021/06/10 02:02:30;;;;;;;10.18;4.97;;;;;;;;;;4954802;28;20023;-38
2021/06/10 02:04:57;;;;;;;14.82;4.70;;;;;;;;;;4973689;28;20502;-40
2021/06/10 02:07:25;;;;;;;11.00;5.63;;;;;;;;;;4973551;28;20035;-37
2021/06/10 02:09:52;;;;;;;12.88;5.32;;;;;;;;;;4973858;28;20026;-42
2021/06/10 02:12:19;;;;;;;11.90;4.80;;;;;;;;;;4971585;28;20026;-42
2021/06/10 02:14:47;;;;;;;12.43;4.80;;;;;;;;;;4973289;28;20019;-38
2021/06/10 02:17:16;;;;;;;10.63;4.38;;;;;;;;;;4972278;28;20105;-40
2021/06/10 02:19:43;;;;;;;13.88;5.10;;;;;;;;;;4973549;28;20106;-47
2021/06/10 02:22:11;;;;;;;12.40;4.63;;;;;;;;;;4973233;28;20026;-37
2021/06/10 02:24:38;;;;;;;11.68;4.95;;;;;;;;;;4973035;28;20035;-41
2021/06/10 02:27:05;;;;;;;11.90;5.10;;;;;;;;;;4973873;28;20418;-43
2021/06/10 02:29:32;;;;;;;10.95;4.88;;;;;;;;;;4973606;28;20023;-40
2021/06/10 02:31:59;;;;;;;12.82;5.18;;;;;;;;;;4967423;28;20506;-41
2021/06/10 02:34:26;;;;;;;10.45;5.13;;;;;;;;;;4972235;28;20554;-41
2021/06/10 02:36:54;;;;;;;9.90;5.00;;;;;;;;;;4972207;28;20039;-39
2021/06/10 02:39:21;;;;;;;8.18;4.95;;;;;;;;;;4972709;28;20015;-40
2021/06/10 02:41:51;;;;;;;13.23;4.82;;;;;;;;;;4973396;28;20069;-40
2021/06/10 02:44:18;;;;;;;14.45;5.90;;;;;;;;;;4973501;28;20015;-40
2021/06/10 02:46:46;;;;;;;27.55;5.47;;;;;;;;;;4973338;28;20030;-39
2021/06/10 02:49:13;;;;;;;9.85;4.88;;;;;;;;;;4973663;28;20537;-40
2021/06/10 02:51:41;;;;;;;14.32;5.70;;;;;;;;;;4972819;28;20375;-41
2021/06/10 02:54:12;;;;;;;12.82;5.15;;;;;;;;;;4973611;28;20031;-41
2021/06/10 02:56:40;;;;;;;14.40;4.65;;;;;;;;;;4972256;28;20035;-39
2021/06/10 02:59:08;;;;;;;13.57;5.78;;;;;;;;;;4973229;28;20027;-43
2021/06/10 03:01:39;;;;;;;10.73;5.13;;;;;;;;;;4973375;28;20050;-39
2021/06/10 03:04:09;;;;;;;9.30;4.90;;;;;;;;;;4973734;28;20063;-39
2021/06/10 03:06:36;;;;;;;9.68;5.10;;;;;;;;;;4973613;28;20033;-41
2021/06/10 03:09:04;;;;;;;13.20;4.78;;;;;;;;;;4973459;28;20561;-42
2021/06/10 03:11:31;;;;;;;10.05;5.30;;;;;;;;;;4973686;28;20027;-40
2021/06/10 03:13:58;;;;;;;11.65;4.65;;;;;;;;;;4973440;28;20062;-40
2021/06/10 03:16:26;;;;;;;15.00;5.28;;;;;;;;;;4973789;28;20033;-42
2021/06/10 03:18:56;;;;;;;12.25;5.20;;;;;;;;;;4972807;28;20031;-42
2021/06/10 03:21:24;;;;;;;11.13;5.00;;;;;;;;;;4973870;28;20113;-40
2021/06/10 03:23:52;;;;;;;10.65;5.10;;;;;;;;;;4972964;28;20371;-40
2021/06/10 03:26:21;;;;;;;16.75;5.13;;;;;;;;;;4973319;28;20133;-40
2021/06/10 03:28:48;;;;;;;7.78;4.57;;;;;;;;;;4972551;28;20025;-42
2021/06/10 03:31:15;;;;;;;10.40;5.03;;;;;;;;;;4973331;28;20525;-41
2021/06/10 03:33:44;;;;;;;7.85;4.93;;;;;;;;;;4972331;28;20035;-40
2021/06/10 03:36:11;;;;;;;9.32;5.07;;;;;;;;;;4973111;28;20026;-40
2021/06/10 03:38:40;;;;;;;8.88;4.78;;;;;;;;;;4972906;28;20074;-41
2021/06/10 03:41:07;;;;;;;13.88;4.75;;;;;;;;;;4973084;28;20035;-42
2021/06/10 03:43:35;;;;;;;7.70;5.00;;;;;;;;;;4972471;28;20031;-40
2021/06/10 03:46:05;;;;;;;8.60;4.70;;;;;;;;;;4973224;28;20509;-40
2021/06/10 03:48:32;;;;;;;8.63;5.00;;;;;;;;;;4972194;28;20620;-40
2021/06/10 03:50:59;;;;;;;7.78;4.95;;;;;;;;;;4972922;28;20027;-39
2021/06/10 03:53:26;;;;;;;10.00;5.20;;;;;;;;;;4973029;28;20097;-40
2021/06/10 03:55:53;;;;;;;8.13;4.68;;;;;;;;;;4972385;28;20034;-40
2021/06/10 03:58:21;;;;;;;7.30;4.38;;;;;;;;;;4955425;28;20026;-41
2021/06/10 04:00:49;;;;;;;9.18;5.35;;;;;;;;;;4972120;28;20039;-40
2021/06/10 04:03:16;;;;;;;9.25;4.88;;;;;;;;;;4972868;28;20030;-41
2021/06/10 04:05:43;;;;;;;8.07;5.03;;;;;;;;;;4972128;28;20027;-41
2021/06/10 04:08:10;;;;;;;8.20;4.80;;;;;;;;;;4972755;28;20019;-41
2021/06/10 04:10:37;;;;;;;6.70;4.65;;;;;;;;;;4972232;28;20035;-40
2021/06/10 04:13:04;;;;;;;8.23;4.70;;;;;;;;;;4972681;28;20034;-40
2021/06/10 04:15:31;;;;;;;8.77;4.75;;;;;;;;;;4971919;28;20035;-41
2021/06/10 04:17:58;;;;;;;7.30;4.53;;;;;;;;;;4972708;28;20019;-40
2021/06/10 04:20:25;;;;;;;5.85;4.07;;;;;;;;;;4972043;28;20264;-40
2021/06/10 04:22:52;;;;;;;10.02;5.13;;;;;;;;;;4972529;28;20050;-40
2021/06/10 04:25:19;;;;;;;7.35;5.00;;;;;;;;;;4972118;28;20074;-40
2021/06/10 04:27:47;;;;;;;8.88;5.45;;;;;;;;;;4972634;28;20058;-39
2021/06/10 04:30:14;;;;;;;9.18;5.15;;;;;;;;;;4971876;28;20483;-40
2021/06/10 04:32:44;;;;;;;12.57;4.93;;;;;;;;;;4972680;28;20027;-40
2021/06/10 04:35:12;;;;;;;7.05;4.28;;;;;;;;;;4972365;28;20037;-40
2021/06/10 04:37:40;;;;;;;9.10;5.05;;;;;;;;;;4971936;28;20498;-40
2021/06/10 04:40:08;;;;;;;7.68;4.78;;;;;;;;;;4973567;28;20054;-40
2021/06/10 04:42:35;;;;;;;8.60;4.25;;;;;;;;;;4976081;28;20102;-40
2021/06/10 04:45:02;;;;;;;8.77;4.93;;;;;;;;;;4976141;28;20019;-40
2021/06/10 04:47:29;;;;;;;6.50;4.68;;;;;;;;;;4975985;28;20050;-40
2021/06/10 04:49:56;;;;;;;6.53;4.90;;;;;;;;;;4976069;28;20073;-41
2021/06/10 04:52:23;;;;;;;9.85;4.95;;;;;;;;;;4975621;28;20058;-40
2021/06/10 04:54:50;;;;;;;5.97;4.82;;;;;;;;;;4976344;28;20047;-41
2021/06/10 04:57:17;;;;;;;7.47;4.70;;;;;;;;;;4975396;28;20030;-41
2021/06/10 04:59:44;;;;;;;7.82;5.18;;;;;;;;;;4975712;28;20030;-40
2021/06/10 05:02:10;;;;;;;8.88;4.93;;;;;;;;;;4975577;28;20073;-41
2021/06/10 05:04:38;;;;;;;7.63;5.10;;;;;;;;;;4975962;28;20023;-41
2021/06/10 05:07:05;;;;;;;8.00;4.85;;;;;;;;;;4975341;28;20106;-41
2021/06/10 05:09:32;;;;;;;7.93;5.03;;;;;;;;;;4958506;28;20365;-41
2021/06/10 05:11:59;;;;;;;9.02;5.25;;;;;;;;;;4975273;28;20143;-40
2021/06/10 05:14:26;;;;;;;8.13;5.15;;;;;;;;;;4975727;28;20022;-41
2021/06/10 05:16:53;;;;;;;9.05;5.40;;;;;;;;;;4975618;28;20035;-41
2021/06/10 05:19:20;;;;;;;6.57;4.78;;;;;;;;;;4957964;28;20430;-40
2021/06/10 05:21:47;;;;;;;7.68;5.00;;;;;;;;;;4975565;28;20069;-40
2021/06/10 05:24:15;;;;;;;9.20;5.68;;;;;;;;;;4974712;28;20655;-40
2021/06/10 05:26:43;;;;;;;8.43;4.88;;;;;;;;;;4975595;28;20038;-40
2021/06/10 05:29:10;;;;;;;8.20;5.18;;;;;;;;;;4974783;28;20023;-40
2021/06/10 05:31:37;;;;;;;8.32;5.25;;;;;;;;;;4975389;28;20383;-41
2021/06/10 05:34:04;;;;;;;9.48;5.35;;;;;;;;;;4975087;28;20457;-40
2021/06/10 05:36:31;;;;;;;6.68;5.03;;;;;;;;;;4975303;28;20035;-39
2021/06/10 05:38:58;;;;;;;11.70;5.95;;;;;;;;;;4957936;28;20023;-41
2021/06/10 05:41:25;;;;;;;9.45;5.45;;;;;;;;;;4975274;28;20027;-40
2021/06/10 05:43:53;;;;;;;10.25;5.40;;;;;;;;;;4974775;28;20019;-42
2021/06/10 05:46:20;;;;;;;8.82;5.70;;;;;;;;;;4957972;28;20027;-38
2021/06/10 05:48:48;;;;;;;7.72;5.85;;;;;;;;;;4974802;28;20550;-38
2021/06/10 05:51:15;;;;;;;6.38;4.97;;;;;;;;;;4974839;28;20034;-39
2021/06/10 05:53:42;;;;;;;7.20;5.72;;;;;;;;;;4974769;28;20734;-38
2021/06/10 05:56:09;;;;;;;9.23;5.70;;;;;;;;;;4974791;28;20050;-39
2021/06/10 05:58:36;;;;;;;8.90;6.00;;;;;;;;;;4957542;28;20447;-40
2021/06/10 06:01:03;;;;;;;8.55;5.32;;;;;;;;;;4974553;28;20022;-41
2021/06/10 06:03:30;;;;;;;8.82;5.10;;;;;;;;;;4975010;28;20427;-38
2021/06/10 06:05:58;;;;;;;7.55;4.90;;;;;;;;;;4974341;28;20042;-39
2021/06/10 06:08:25;;;;;;;8.10;5.47;;;;;;;;;;4974916;28;20498;-38
2021/06/10 06:10:53;;;;;;;7.82;5.57;;;;;;;;;;4974275;28;20098;-38
2021/06/10 06:13:23;;;;;;;8.15;5.50;;;;;;;;;;4974720;28;20070;-41
2021/06/10 06:15:51;;;;;;;7.30;4.88;;;;;;;;;;4974494;28;20695;-40
2021/06/10 06:18:20;;;;;;;7.68;5.75;;;;;;;;;;4975262;28;20030;-41
2021/06/10 06:20:47;;;;;;;9.07;5.45;;;;;;;;;;4974468;28;20018;-39
2021/06/10 06:23:15;;;;;;;7.47;5.35;;;;;;;;;;4974940;28;20070;-40
2021/06/10 06:25:42;;;;;;;10.60;5.57;;;;;;;;;;4974160;28;20502;-41
2021/06/10 06:28:09;;;;;;;8.75;6.07;;;;;;;;;;4975282;28;20023;-40
2021/06/10 06:30:36;;;;;;;7.65;5.57;;;;;;;;;;4956966;28;20431;-41
2021/06/10 06:33:04;;;;;;;11.52;5.70;;;;;;;;;;4974454;28;20549;-41
2021/06/10 06:35:31;;;;;;;10.15;5.22;;;;;;;;;;4974077;28;20034;-41
2021/06/10 06:37:58;;;;;;;8.10;4.68;;;;;;;;;;4974866;28;20030;-41
2021/06/10 06:40:26;;;;;;;7.10;4.75;;;;;;;;;;4974661;28;20094;-42
2021/06/10 06:42:54;;;;;;;8.02;4.88;;;;;;;;;;4974226;28;20498;-41
2021/06/10 06:45:21;;;;;;;8.35;4.90;;;;;;;;;;4974594;28;20038;-44
2021/06/10 06:47:48;;;;;;;7.05;4.68;;;;;;;;;;4974162;28;20022;-40
2021/06/10 06:50:15;;;;;;;8.88;5.32;;;;;;;;;;4974663;28;20074;-41
2021/06/10 06:52:42;;;;;;;8.35;5.22;;;;;;;;;;4973659;28;20026;-42
2021/06/10 06:55:09;;;;;;;7.50;5.07;;;;;;;;;;4974159;28;20023;-40
2021/06/10 06:57:36;;;;;;;7.80;5.25;;;;;;;;;;4974093;28;20023;-40
2021/06/10 07:00:05;;;;;;;6.95;4.82;;;;;;;;;;4974338;28;20479;-41
2021/06/10 07:02:32;;;;;;;8.95;5.85;;;;;;;;;;4973035;28;20035;-40
2021/06/10 07:04:59;;;;;;;6.78;4.88;;;;;;;;;;4974378;28;20039;-39
2021/06/10 07:07:26;;;;;;;6.35;4.65;;;;;;;;;;4973722;28;20447;-41
2021/06/10 07:09:53;;;;;;;7.32;5.30;;;;;;;;;;4974071;28;20033;-40
2021/06/10 07:12:20;;;;;;;7.28;4.88;;;;;;;;;;4973602;28;20449;-41
2021/06/10 07:14:47;;;;;;;7.30;5.03;;;;;;;;;;4973959;28;20033;-43
2021/06/10 07:17:14;;;;;;;7.32;5.10;;;;;;;;;;4973465;28;20043;-38
2021/06/10 07:19:41;;;;;;;6.22;4.80;;;;;;;;;;4974107;28;20101;-40
2021/06/10 07:22:09;;;;;;;6.95;4.50;;;;;;;;;;4973376;28;20038;-40
2021/06/10 07:24:36;;;;;;;5.88;4.53;;;;;;;;;;4973417;28;20129;-41
2021/06/10 07:27:03;;;;;;;8.15;4.85;;;;;;;;;;4956579;28;20026;-43
2021/06/10 07:29:31;;;;;;;7.82;5.22;;;;;;;;;;4973284;28;20018;-39
2021/06/10 07:31:58;;;;;;;8.15;4.10;;;;;;;;;;4973526;28;20494;-41
2021/06/10 07:34:27;;;;;;;6.70;4.72;;;;;;;;;;4973381;28;20027;-42
2021/06/10 07:36:54;;;;;;;7.57;4.63;;;;;;;;;;4973292;28;20035;-41
2021/06/10 07:39:21;;;;;;;5.90;4.47;;;;;;;;;;4973141;28;20023;-41
2021/06/10 07:41:48;;;;;;;5.97;4.30;;;;;;;;;;4973745;28;20527;-41
2021/06/10 07:44:15;;;;;;;7.10;4.90;;;;;;;;;;4972994;28;20106;-41
2021/06/10 07:46:42;;;;;;;6.07;4.53;;;;;;;;;;4973628;28;20543;-41
2021/06/10 07:49:09;;;;;;;6.05;4.40;;;;;;;;;;4972943;28;20114;-40
2021/06/10 07:51:36;;;;;;;6.20;4.28;;;;;;;;;;4973604;28;20015;-40
2021/06/10 07:54:03;;;;;;;6.68;4.25;;;;;;;;;;4972472;28;20097;-42
2021/06/10 07:56:30;;;;;;;6.18;4.30;;;;;;;;;;4973539;28;20088;-40
2021/06/10 07:58:57;;;;;;;6.15;4.25;;;;;;;;;;4972904;28;20026;-41
2021/06/10 08:01:24;;;;;;;6.70;4.25;;;;;;;;;;4973326;28;20026;-40
2021/06/10 08:03:51;;;;;;;7.00;4.70;;;;;;;;;;4972409;28;20467;-42
2021/06/10 08:06:20;;;;;;;7.45;4.60;;;;;;;;;;4956050;28;20378;-41
2021/06/10 08:08:47;;;;;;;4.97;4.18;;;;;;;;;;4955554;28;20235;-40
2021/06/10 08:11:14;;;;;;;6.32;4.70;;;;;;;;;;4972733;28;20026;-42
2021/06/10 08:13:41;;;;;;;6.20;4.45;;;;;;;;;;4972913;28;20019;-39
2021/06/10 08:16:08;;;;;;;6.40;4.45;;;;;;;;;;4971548;28;20041;-40
2021/06/10 08:18:36;;;;;;;7.30;4.45;;;;;;;;;;4972971;28;20018;-40
2021/06/10 08:21:03;;;;;;;5.53;3.70;;;;;;;;;;4972754;28;20033;-40
2021/06/10 08:23:31;;;;;;;7.38;4.72;;;;;;;;;;4972583;28;20030;-40
2021/06/10 08:26:00;;;;;;;7.82;4.82;;;;;;;;;;4972351;28;20046;-40
2021/06/10 08:28:32;;;;;;;6.93;4.72;;;;;;;;;;4972908;28;20050;-40
2021/06/10 08:30:59;;;;;;;7.57;4.40;;;;;;;;;;4971973;28;20051;-41
2021/06/10 08:33:26;;;;;;;8.73;5.10;;;;;;;;;;4972462;28;20023;-42
2021/06/10 08:35:53;;;;;;;8.75;4.70;;;;;;;;;;4972254;28;20054;-40
2021/06/10 08:38:20;;;;;;;8.13;5.07;;;;;;;;;;4972813;28;20479;-40
2021/06/10 08:40:47;;;;;;;6.50;4.63;;;;;;;;;;4972163;28;20027;-41
2021/06/10 08:43:14;;;;;;;6.90;4.60;;;;;;;;;;4972708;28;20031;-41
2021/06/10 08:45:44;;;;;;;8.13;5.00;;;;;;;;;;4972295;28;20387;-39
2021/06/10 08:48:11;;;;;;;8.45;5.38;;;;;;;;;;4973065;28;20423;-40
2021/06/10 08:50:39;;;;;;;9.27;5.18;;;;;;;;;;4972565;28;20149;-40
2021/06/10 08:53:08;;;;;;;7.57;5.05;;;;;;;;;;4972252;28;20034;-40
2021/06/10 08:55:36;;;;;;;7.88;5.13;;;;;;;;;;4972597;28;20035;-41
2021/06/10 08:58:02;;;;;;;11.30;5.65;;;;;;;;;;4972171;28;20030;-40
2021/06/10 09:00:30;;;;;;;7.57;5.03;;;;;;;;;;4972878;28;20023;-40
2021/06/10 09:02:59;;;;;;;7.65;5.28;;;;;;;;;;4972003;28;20019;-41
2021/06/10 09:05:26;;;;;;;8.95;5.30;;;;;;;;;;4972081;28;20098;-40
2021/06/10 09:07:55;;;;;;;8.13;5.47;;;;;;;;;;4972107;28;20046;-41
2021/06/10 09:10:26;;;;;;;9.07;5.75;;;;;;;;;;4972437;28;20073;-40
2021/06/10 09:12:55;;;;;;;10.75;5.63;;;;;;;;;;4972188;28;20386;-41
2021/06/10 09:15:28;;;;;;;10.10;6.13;;;;;;;;;;4972287;28;20013;-40
2021/06/10 09:17:55;;;;;;;;;;;;;;;;;;4972679;28;20062;-39
2021/06/10 09:20:22;;;;;;;8.35;5.28;;;;;;;;;;4972490;28;19949;-40
2021/06/10 09:22:50;;;;;;;9.90;5.15;;;;;;;;;;4971919;28;20043;-40
2021/06/10 09:25:19;;;;;;;8.98;5.53;;;;;;;;;;4972181;28;20042;-41
2021/06/10 09:27:53;;;;;;;8.98;5.20;;;;;;;;;;4975525;28;20033;-40
2021/06/10 09:30:29;;;;;;;9.25;5.72;;;;;;;;;;4975830;28;20375;-41
2021/06/10 09:32:56;;;;;;;10.23;5.22;;;;;;;;;;4975710;28;20109;-41
2021/06/10 09:35:30;;;;;;;10.20;5.18;;;;;;;;;;4975269;28;20019;-40
2021/06/10 09:37:59;;;;;;;8.65;5.40;;;;;;;;;;4958493;28;20114;-40
2021/06/10 09:40:26;;;;;;;10.77;5.85;;;;;;;;;;4957910;28;20025;-41
2021/06/10 09:42:53;;;;;;;8.52;4.78;;;;;;;;;;4975625;28;20026;-40
2021/06/10 09:45:21;;;;;;;9.25;5.40;;;;;;;;;;4975191;28;20033;-41
2021/06/10 09:47:51;;;;;;;8.10;4.80;;;;;;;;;;4975563;28;20100;-40
2021/06/10 09:50:19;;;;;;;8.82;5.28;;;;;;;;;;4974993;28;20491;-40
2021/06/10 09:52:56;;;;;;;10.27;5.43;;;;;;;;;;4975663;28;20074;-41
2021/06/10 09:55:52;;;;;;;11.50;5.60;;;;;;;;;;4975031;28;20030;-41
2021/06/10 09:58:22;;;;;;;9.23;5.18;;;;;;;;;;4975567;28;20041;-39
2021/06/10 10:00:49;;;;;;;10.88;5.45;;;;;;;;;;4974877;28;20038;-41
2021/06/10 10:03:25;;;;;;;9.88;4.68;;;;;;;;;;4975397;28;20034;-41
2021/06/10 10:06:00;;;;;;;8.90;5.07;;;;;;;;;;4974756;28;20023;-40
2021/06/10 10:08:29;;;;;;;8.35;4.90;;;;;;;;;;4975180;28;20138;-40
2021/06/10 10:10:56;;;;;;;8.70;4.95;;;;;;;;;;4974783;28;20483;-40
2021/06/10 10:13:25;;;;;;;7.80;4.72;;;;;;;;;;4975274;28;20070;-41
2021/06/10 10:15:52;;;;;;;10.63;4.93;;;;;;;;;;4974590;28;20118;-41
2021/06/10 10:18:20;;;;;;;7.30;4.22;;;;;;;;;;4975310;28;20025;-41
2021/06/10 10:20:47;;;;;;;8.32;5.00;;;;;;;;;;4974600;28;20446;-39
2021/06/10 10:23:15;;;;;;;7.45;4.35;;;;;;;;;;4974689;28;20050;-39
2021/06/10 10:25:42;;;;;;;7.35;4.35;;;;;;;;;;4974321;28;20407;-41
2021/06/10 10:28:10;;;;;;;7.53;4.20;;;;;;;;;;4974842;28;20054;-41
2021/06/10 10:30:38;;;;;;;7.05;4.10;;;;;;;;;;4974301;28;20101;-43
2021/06/10 10:33:15;;;;;;;8.25;4.10;;;;;;;;;;4974967;28;20033;-40
2021/06/10 10:35:50;;;;;;;6.90;3.78;;;;;;;;;;4974214;28;20078;-43
2021/06/10 10:38:21;;;;;;;7.88;3.60;;;;;;;;;;4969077;28;20034;-45
2021/06/10 10:40:59;;;;;;;5.88;3.75;;;;;;;;;;4973866;28;20007;-46
2021/06/10 10:43:27;;;;;;;7.07;4.03;;;;;;;;;;4966818;28;20030;-46
2021/06/10 10:46:17;;;;;;;7.60;4.15;;;;;;;;;;4964293;28;20106;-40
2021/06/10 10:48:44;;;;;;;6.50;3.47;;;;;;;;;;4973500;28;20082;-38
2021/06/10 10:51:35;;;;;;;7.20;4.15;;;;;;;;;;4972409;28;20062;-36
2021/06/10 10:54:06;;;;;;;8.13;3.53;;;;;;;;;;4974369;28;20061;-40
2021/06/10 10:56:43;;;;;;;8.10;3.75;;;;;;;;;;4973494;28;20035;-37
2021/06/10 10:59:10;;;;;;;10.30;3.92;;;;;;;;;;4974074;28;20038;-35
2021/06/10 11:01:37;;;;;;;6.80;3.30;;;;;;;;;;4972243;28;20466;-36
2021/06/10 11:04:04;;;;;;;6.47;3.72;;;;;;;;;;4972959;28;20023;-42
2021/06/10 11:06:33;;;;;;;5.88;3.65;;;;;;;;;;4973784;28;20033;-39
2021/06/10 11:09:16;;;;;;;7.25;3.80;;;;;;;;;;4973374;28;20038;-44
2021/06/10 11:11:52;;;;;;;7.53;3.63;;;;;;;;;;4973930;28;20027;-43
2021/06/10 11:14:38;;;;;;;7.88;3.55;;;;;;;;;;4971200;28;20066;-39
2021/06/10 11:17:13;;;;;;;7.03;3.30;;;;;;;;;;4973489;28;20031;-40
2021/06/10 11:19:59;;;;;;;6.50;3.38;;;;;;;;;;4972875;28;20128;-36
2021/06/10 11:22:45;;;;;;;8.02;3.53;;;;;;;;;;4973179;28;20391;-37
2021/06/10 11:25:15;;;;;;;7.22;3.20;;;;;;;;;;4971345;28;20427;-42
2021/06/10 11:27:44;;;;;;;5.97;3.40;;;;;;;;;;4972570;28;20175;-38
2021/06/10 11:30:23;;;;;;;7.03;3.33;;;;;;;;;;4973198;28;20093;-41
2021/06/10 11:33:04;;;;;;;4.88;3.30;;;;;;;;;;4973110;28;20023;-34
2021/06/10 11:35:34;;;;;;;7.22;3.65;;;;;;;;;;4973414;28;20533;-44
2021/06/10 11:38:06;;;;;;;7.97;4.30;;;;;;;;;;4970811;28;20038;-39
2021/06/10 11:40:33;;;;;;;5.83;3.10;;;;;;;;;;4972943;28;20093;-43
2021/06/10 11:43:05;;;;;;;6.35;3.10;;;;;;;;;;4972967;28;20557;-45
2021/06/10 11:45:32;;;;;;;5.80;3.53;;;;;;;;;;4971652;28;20022;-42
2021/06/10 11:47:59;;;;;;;4.65;2.63;;;;;;;;;;4972413;28;20038;-36
2021/06/10 11:50:36;;;;;;;6.07;3.28;;;;;;;;;;4971399;28;20023;-35
2021/06/10 11:53:08;;;;;;;5.95;3.03;;;;;;;;;;4973160;28;20447;-35
2021/06/10 11:55:35;;;;;;;;;;;;;;;;;;4955243;28;20038;-36
2021/06/10 11:58:07;;;;;;;5.40;2.67;;;;;;;;;;4972000;28;20270;-34
2021/06/10 12:00:41;;;;;;;4.65;2.65;;;;;;;;;;4971084;28;20015;-36
2021/06/10 12:03:10;;;;;;;5.38;2.97;;;;;;;;;;4971657;28;20049;-35
2021/06/10 12:05:45;;;;;;;6.18;3.50;;;;;;;;;;4972240;28;20030;-43
2021/06/10 12:08:14;;;;;;;5.40;2.92;;;;;;;;;;4972225;28;20026;-34
2021/06/10 12:10:41;;;;;;;8.82;2.90;;;;;;;;;;4972018;28;20019;-37
2021/06/10 12:13:08;;;;;;;5.80;3.00;;;;;;;;;;4970754;28;20426;-36
2021/06/10 12:15:39;;;;;;;9.45;2.85;;;;;;;;;;4972057;28;20014;-38
2021/06/10 12:18:10;;;;;;;6.28;2.90;;;;;;;;;;4972541;28;20034;-39
2021/06/10 12:20:41;;;;;;;7.25;2.80;;;;;;;;;;4971516;28;20024;-44
2021/06/10 12:23:15;;;;;;;5.95;2.92;;;;;;;;;;4946945;28;20063;-36
2021/06/10 12:25:42;;;;;;;7.95;3.10;;;;;;;;;;4969254;28;20066;-38
2021/06/10 12:28:25;;;;;;;5.47;2.75;;;;;;;;;;4971751;28;20026;-40
2021/06/10 12:30:59;;;;;;;7.93;2.67;;;;;;;;;;4971718;28;20098;-37
2021/06/10 12:33:26;;;;;;;5.93;2.60;;;;;;;;;;4972410;28;20102;-36
2021/06/10 12:35:57;;;;;;;5.57;2.50;;;;;;;;;;4971161;28;20121;-38
2021/06/10 12:38:28;;;;;;;4.70;2.60;;;;;;;;;;4967945;28;20027;-41
2021/06/10 12:40:55;;;;;;;4.63;2.22;;;;;;;;;;4971321;28;20097;-42
2021/06/10 12:43:24;;;;;;;5.38;2.50;;;;;;;;;;4972310;28;20026;-40
2021/06/10 12:46:11;;;;;;;5.70;2.38;;;;;;;;;;4972075;28;20030;-36
2021/06/10 12:48:39;;;;;;;5.45;2.80;;;;;;;;;;4970105;28;20027;-44
2021/06/10 12:51:18;;;;;;;4.90;2.42;;;;;;;;;;4972036;28;20475;-41
2021/06/10 12:54:00;;;;;;;6.47;2.40;;;;;;;;;;4969439;28;20030;-39
2021/06/10 12:56:48;;;;;;;9.45;2.60;;;;;;;;;;4971463;28;20034;-40
2021/06/10 12:59:23;;;;;;;3.95;2.42;;;;;;;;;;4971258;28;20125;-35
2021/06/10 13:02:19;;;;;;;4.95;2.20;;;;;;;;;;4972063;28;20097;-40
2021/06/10 13:04:50;;;;;;;13.43;2.50;;;;;;;;;;4958631;28;20035;-39
2021/06/10 13:07:44;;;;;;;5.10;2.43;;;;;;;;;;4947252;29;20023;-39
2021/06/10 13:10:14;;;;;;;3.33;2.13;;;;;;;;;;4971587;28;20483;-40
2021/06/10 13:12:41;;;;;;;4.68;2.00;;;;;;;;;;4973462;28;20070;-39
2021/06/10 13:15:16;;;;;;;5.30;2.30;;;;;;;;;;4974709;28;20079;-39
2021/06/10 13:17:47;;;;;;;5.55;2.13;;;;;;;;;;4974701;28;20109;-41
2021/06/10 13:20:14;;;;;;;8.73;2.17;;;;;;;;;;4975805;28;20111;-37
2021/06/10 13:22:42;;;;;;;7.68;2.33;;;;;;;;;;4975237;28;20070;-38
2021/06/10 13:25:10;;;;;;;5.10;2.10;;;;;;;;;;4972636;28;20631;-42
2021/06/10 13:27:38;;;;;;;7.78;1.90;;;;;;;;;;4975670;28;20035;-38
2021/06/10 13:30:05;;;;;;;6.00;2.15;;;;;;;;;;4956976;28;20074;-36
2021/06/10 13:32:34;;;;;;;4.80;1.90;;;;;;;;;;4974711;28;20037;-39
2021/06/10 13:35:13;;;;;;;10.82;2.58;;;;;;;;;;4973997;28;20026;-38
2021/06/10 13:37:40;;;;;;;5.75;2.28;;;;;;;;;;4962057;28;20082;-38
2021/06/10 13:40:08;;;;;;;5.20;2.10;;;;;;;;;;4954727;29;20506;-39
2021/06/10 13:42:35;;;;;;;3.58;2.13;;;;;;;;;;4956361;28;20070;-40
2021/06/10 13:45:02;;;;;;;17.77;2.47;;;;;;;;;;4967092;28;20479;-39
2021/06/10 13:47:29;;;;;;;6.03;1.58;;;;;;;;;;4973869;28;20067;-39
2021/06/10 13:50:00;;;;;;;8.50;2.10;;;;;;;;;;4965574;28;20058;-38
2021/06/10 13:52:27;;;;;;;6.95;1.52;;;;;;;;;;4959598;28;20045;-38
2021/06/10 13:54:54;;;;;;;2.90;1.40;;;;;;;;;;4953827;28;20023;-38
2021/06/10 13:57:21;;;;;;;6.30;1.40;;;;;;;;;;4964457;28;20065;-39
2021/06/10 13:59:48;;;;;;;4.93;1.00;;;;;;;;;;4955210;28;20027;-38
2021/06/10 14:02:19;;;;;;;4.13;1.50;;;;;;;;;;4953037;29;20024;-38
2021/06/10 14:04:48;;;;;;;2.07;1.13;;;;;;;;;;4973719;28;20019;-41
2021/06/10 14:07:15;;;;;;;8.10;1.25;;;;;;;;;;4960315;28;20055;-38
2021/06/10 14:09:43;;;;;;;4.63;1.30;;;;;;;;;;4956518;28;20039;-38
2021/06/10 14:12:10;;;;;;;7.72;1.90;;;;;;;;;;4969691;28;20495;-38
2021/06/10 14:14:38;;;;;;;6.07;1.48;;;;;;;;;;4973020;28;20468;-36
2021/06/10 14:17:05;;;;;;;6.35;1.27;;;;;;;;;;4973763;28;20043;-39
2021/06/10 14:19:32;;;;;;;7.05;1.85;;;;;;;;;;4973338;28;20030;-37
2021/06/10 14:22:00;;;;;;;7.85;1.20;;;;;;;;;;4973466;28;20372;-38
2021/06/10 14:24:28;;;;;;;11.65;1.50;;;;;;;;;;4972150;28;20031;-36
2021/06/10 14:26:55;;;;;;;8.73;0.98;;;;;;;;;;4970599;28;20737;-38
2021/06/10 14:34:23;;;;;;;3.40;0.90;;;;;;;;;;4975364;28;20495;-38
2021/06/10 14:36:50;;;;;;;2.95;0.80;;;;;;;;;;4971679;28;20157;-40
2021/06/10 14:39:17;;;;;;;5.53;1.00;;;;;;;;;;4972954;28;20042;-41
2021/06/10 14:41:45;;;;;;;17.45;1.10;;;;;;;;;;4959890;28;20026;-38
2021/06/10 14:44:12;;;;;;;13.88;1.10;;;;;;;;;;4967885;28;20011;-42
2021/06/10 14:46:39;;;;;;;7.18;0.95;;;;;;;;;;4971009;28;20033;-38
2021/06/10 14:49:06;;;;;;;12.85;0.93;;;;;;;;;;4952967;28;20023;-42
2021/06/10 14:51:33;;;;;;;8.60;1.42;;;;;;;;;;4973304;28;20023;-41
2021/06/10 14:54:00;;;;;;;11.43;0.93;;;;;;;;;;4973458;28;20031;-43
2021/06/10 14:56:27;;;;;;;10.88;1.50;;;;;;;;;;4973929;28;20438;-46